Time;durP1;ratioP1;P1;durP2;ratioP2;P2;SDS_P1;SDS_P2;PMS_P1;PMS_P2;Temp;Humidity;BMP_temperature;BMP_pressure;BME280_temperature;BME280_humidity;BME280_pressure;Samples;Min_cycle;Max_cycle;Signal;HPM_P1;HPM_P2
2022/01/13 00:00:47;;;;;;;47.45;25.23;;;0.80;99.90;;;;;;5036219;28;20409;-67
2022/01/13 00:03:14;;;;;;;43.95;24.52;;;0.80;99.90;;;;;;5033137;28;20052;-67
2022/01/13 00:05:42;;;;;;;45.80;23.05;;;0.80;99.90;;;;;;5035435;28;20072;-67
2022/01/13 00:08:09;;;;;;;45.95;24.05;;;0.80;99.90;;;;;;5024211;28;20041;-67
2022/01/13 00:10:37;;;;;;;43.88;23.60;;;0.90;99.90;;;;;;5028956;28;20346;-67
2022/01/13 00:13:09;;;;;;;41.92;23.95;;;0.90;99.90;;;;;;5028521;28;20567;-67
2022/01/13 00:15:41;;;;;;;;;;;0.90;99.90;;;;;;5030808;28;20066;-67
2022/01/13 00:18:30;;;;;;;42.45;22.67;;;0.90;99.90;;;;;;5023624;28;20035;-67
2022/01/13 00:21:12;;;;;;;41.50;22.42;;;1.00;99.90;;;;;;5036547;28;20045;-67
2022/01/13 00:23:45;;;;;;;39.97;22.05;;;1.00;99.90;;;;;;5028676;28;20160;-67
2022/01/13 00:26:18;;;;;;;45.60;23.85;;;1.00;99.90;;;;;;5017428;28;20503;-67
2022/01/13 00:28:48;;;;;;;40.67;22.05;;;1.00;99.90;;;;;;5027003;28;20045;-67
2022/01/13 00:31:24;;;;;;;46.13;24.48;;;1.10;99.90;;;;;;5028435;28;20104;-67
2022/01/13 00:33:54;;;;;;;43.35;23.83;;;1.10;99.90;;;;;;5041559;28;20056;-67
2022/01/13 00:36:23;;;;;;;40.40;23.00;;;1.10;99.90;;;;;;5028758;28;20060;-66
2022/01/13 00:38:51;;;;;;;46.08;23.02;;;1.10;99.90;;;;;;5037271;28;20415;-66
2022/01/13 00:41:19;;;;;;;43.83;23.80;;;1.10;99.90;;;;;;5039561;28;20536;-67
2022/01/13 00:43:49;;;;;;;42.47;23.55;;;1.10;99.90;;;;;;5023341;28;20041;-66
2022/01/13 00:46:24;;;;;;;39.67;23.23;;;1.10;99.90;;;;;;5028466;28;20065;-66
2022/01/13 00:48:53;;;;;;;43.85;23.83;;;1.00;99.90;;;;;;5026189;28;20161;-66
2022/01/13 00:51:22;;;;;;;42.80;23.52;;;1.00;99.90;;;;;;5027294;28;20045;-66
2022/01/13 00:53:50;;;;;;;43.28;23.75;;;1.00;99.90;;;;;;5028432;28;20334;-66
2022/01/13 00:56:18;;;;;;;37.95;21.83;;;1.10;99.90;;;;;;5028282;28;20124;-66
2022/01/13 00:58:45;;;;;;;44.38;23.70;;;1.10;99.90;;;;;;5026951;28;20076;-66
2022/01/13 01:01:12;;;;;;;45.08;24.88;;;1.10;99.90;;;;;;5014532;28;20569;-66
2022/01/13 01:03:41;;;;;;;42.42;23.60;;;1.10;99.90;;;;;;5034210;28;20115;-66
2022/01/13 01:06:08;;;;;;;40.63;23.17;;;1.20;99.90;;;;;;5034431;28;20064;-66
2022/01/13 01:08:36;;;;;;;44.03;24.35;;;1.20;99.90;;;;;;5039400;28;20034;-66
2022/01/13 01:11:05;;;;;;;40.95;23.02;;;1.20;99.90;;;;;;5037002;28;20045;-66
2022/01/13 01:13:35;;;;;;;42.22;23.48;;;1.20;99.90;;;;;;5030598;28;20373;-66
2022/01/13 01:16:07;;;;;;;42.42;23.95;;;1.20;99.90;;;;;;5037328;28;20049;-66
2022/01/13 01:18:48;;;;;;;45.95;24.20;;;1.20;99.90;;;;;;5028544;28;20136;-66
2022/01/13 01:21:35;;;;;;;43.83;24.30;;;1.10;99.90;;;;;;5032437;28;20053;-68
2022/01/13 01:26:44;;;;;;;43.17;24.13;;;1.10;99.90;;;;;;5035835;28;20059;-67
2022/01/13 01:29:33;;;;;;;46.83;25.77;;;1.00;99.90;;;;;;5042007;28;20045;-67
2022/01/13 01:32:04;;;;;;;43.78;24.27;;;0.90;99.90;;;;;;5041732;28;20061;-67
2022/01/13 01:37:13;;;;;;;46.88;25.35;;;0.80;99.90;;;;;;5033973;28;20087;-67
2022/01/13 01:39:42;;;;;;;51.95;26.45;;;0.70;99.90;;;;;;5040425;28;20046;-67
2022/01/13 01:42:11;;;;;;;48.53;26.15;;;0.60;99.90;;;;;;5034362;28;20122;-66
2022/01/13 01:44:43;;;;;;;47.42;25.38;;;0.50;99.90;;;;;;5048206;28;20044;-67
2022/01/13 01:47:13;;;;;;;49.20;26.92;;;0.40;99.90;;;;;;5032828;28;20511;-67
2022/01/13 01:49:43;;;;;;;48.63;24.80;;;0.40;99.90;;;;;;5018113;28;20511;-67
2022/01/13 01:52:15;;;;;;;45.78;25.73;;;0.30;99.90;;;;;;5027997;28;20077;-67
2022/01/13 01:54:43;;;;;;;47.47;25.73;;;0.20;99.90;;;;;;5029435;28;20488;-67
2022/01/13 01:57:10;;;;;;;49.67;27.17;;;0.10;99.90;;;;;;5029953;28;20041;-67
2022/01/13 01:59:40;;;;;;;54.17;28.10;;;0.10;99.90;;;;;;5029174;28;20068;-65
2022/01/13 02:02:10;;;;;;;47.90;26.38;;;0.00;99.90;;;;;;5020884;28;20046;-67
2022/01/13 02:04:39;;;;;;;48.35;26.73;;;0.00;99.90;;;;;;5019567;28;20081;-67
2022/01/13 02:07:07;;;;;;;45.63;25.27;;;-0.10;99.90;;;;;;5027779;28;20046;-67
2022/01/13 02:09:37;;;;;;;49.45;25.90;;;-0.10;99.90;;;;;;5012132;28;20046;-67
2022/01/13 02:12:09;;;;;;;49.70;25.88;;;-0.10;99.90;;;;;;5019465;28;20053;-67
2022/01/13 02:14:50;;;;;;;47.15;26.73;;;-0.20;99.90;;;;;;5030192;28;20740;-66
2022/01/13 02:17:26;;;;;;;54.42;29.77;;;-0.30;99.90;;;;;;5029092;28;20049;-66
2022/01/13 02:19:57;;;;;;;48.03;25.85;;;-0.20;99.90;;;;;;5028225;28;20483;-68
2022/01/13 02:22:25;;;;;;;49.85;25.52;;;-0.30;99.90;;;;;;5036322;28;20049;-67
2022/01/13 02:24:53;;;;;;;49.13;25.25;;;-0.40;99.90;;;;;;5039316;28;20060;-67
2022/01/13 02:27:21;;;;;;;48.30;25.65;;;-0.40;99.90;;;;;;5047007;28;20036;-67
2022/01/13 02:29:49;;;;;;;47.40;25.67;;;-0.40;99.90;;;;;;5050694;28;20040;-67
2022/01/13 02:32:18;;;;;;;46.85;25.30;;;-0.40;99.90;;;;;;5048297;28;20067;-67
2022/01/13 02:34:45;;;;;;;50.67;26.35;;;-0.40;99.90;;;;;;5050153;28;20119;-67
2022/01/13 02:37:12;;;;;;;48.78;24.83;;;-0.30;99.90;;;;;;5047327;28;20416;-67
2022/01/13 02:39:41;;;;;;;45.70;25.35;;;-0.30;99.90;;;;;;5033839;28;20064;-67
2022/01/13 02:42:14;;;;;;;44.95;26.08;;;-0.20;99.90;;;;;;5036720;28;20057;-68
2022/01/13 02:45:21;;;;;;;47.13;24.67;;;-0.20;99.90;;;;;;5046917;28;20579;-67
2022/01/13 02:50:11;;;;;;;45.60;25.85;;;0.10;99.90;;;;;;5034860;28;20040;-67
2022/01/13 02:52:39;;;;;;;45.63;24.77;;;0.10;99.90;;;;;;5030926;28;20103;-67
2022/01/13 02:55:07;;;;;;;46.55;25.60;;;0.20;99.90;;;;;;5028039;28;20498;-67
2022/01/13 02:57:36;;;;;;;46.15;24.17;;;0.40;99.90;;;;;;5033342;28;20596;-67
2022/01/13 03:00:04;;;;;;;44.08;24.27;;;0.40;99.90;;;;;;5032111;28;20057;-67
2022/01/13 03:02:32;;;;;;;46.67;24.48;;;0.50;99.90;;;;;;5032076;28;20429;-67
2022/01/13 03:05:00;;;;;;;49.92;25.88;;;0.50;99.90;;;;;;5032300;28;20448;-67
2022/01/13 03:07:30;;;;;;;45.28;24.40;;;0.60;99.90;;;;;;5031368;28;20049;-67
2022/01/13 03:09:58;;;;;;;45.75;24.33;;;0.60;99.90;;;;;;5042796;28;20427;-67
2022/01/13 03:12:27;;;;;;;46.60;24.52;;;0.60;99.90;;;;;;5043390;28;20040;-67
2022/01/13 03:14:57;;;;;;;44.10;23.55;;;0.70;99.90;;;;;;5039716;28;20231;-67
2022/01/13 03:17:24;;;;;;;45.60;24.75;;;0.70;99.90;;;;;;5038997;28;20053;-67
2022/01/13 03:19:51;;;;;;;46.40;24.08;;;0.70;99.90;;;;;;5031406;28;20431;-67
2022/01/13 03:22:19;;;;;;;44.42;24.77;;;0.80;99.90;;;;;;5031088;28;20137;-67
2022/01/13 03:24:46;;;;;;;46.28;24.48;;;0.80;99.90;;;;;;5024890;28;20512;-67
2022/01/13 03:27:22;;;;;;;45.92;23.75;;;0.80;99.90;;;;;;5029838;28;20045;-66
2022/01/13 03:29:49;;;;;;;45.40;23.30;;;0.80;99.90;;;;;;5040390;28;20464;-66
2022/01/13 03:32:17;;;;;;;43.63;24.58;;;0.80;99.90;;;;;;5035316;28;20498;-66
2022/01/13 03:34:45;;;;;;;52.00;24.75;;;0.80;99.90;;;;;;5041202;28;20037;-67
2022/01/13 03:37:12;;;;;;;41.05;23.23;;;0.90;99.90;;;;;;5038759;28;20480;-68
2022/01/13 03:39:40;;;;;;;40.80;22.50;;;0.90;99.90;;;;;;5024737;28;20483;-67
2022/01/13 03:42:07;;;;;;;41.80;23.67;;;0.90;99.90;;;;;;5040385;28;20033;-67
2022/01/13 03:44:34;;;;;;;42.72;23.30;;;0.90;99.90;;;;;;5037326;28;20087;-67
2022/01/13 03:47:04;;;;;;;42.92;24.23;;;1.00;99.90;;;;;;5038419;28;20483;-66
2022/01/13 03:49:32;;;;;;;43.33;23.40;;;1.00;99.90;;;;;;5035540;28;20033;-67
2022/01/13 03:52:22;;;;;;;38.10;22.33;;;0.90;99.90;;;;;;5041682;28;20041;-67
2022/01/13 03:55:28;;;;;;;38.70;22.10;;;1.00;99.90;;;;;;5040592;28;20068;-67
2022/01/13 03:57:58;;;;;;;44.03;23.38;;;0.90;99.90;;;;;;5010587;28;20527;-67
2022/01/13 04:01:04;;;;;;;42.60;24.23;;;1.00;99.90;;;;;;5028894;28;20053;-68
2022/01/13 04:03:31;;;;;;;44.13;22.52;;;1.00;99.90;;;;;;5021630;28;20337;-67
2022/01/13 04:06:41;;;;;;;40.65;22.45;;;1.00;99.90;;;;;;5030691;28;20049;-67
2022/01/13 04:09:28;;;;;;;41.00;23.02;;;1.00;99.90;;;;;;5028760;28;20048;-67
2022/01/13 04:11:56;;;;;;;40.30;22.42;;;1.10;99.90;;;;;;5026501;28;20052;-66
2022/01/13 04:17:13;;;;;;;42.42;22.98;;;1.10;99.90;;;;;;5022999;28;20144;-67
2022/01/13 04:19:41;;;;;;;42.03;23.48;;;1.10;99.90;;;;;;5037520;28;20040;-67
2022/01/13 04:22:09;;;;;;;41.35;22.40;;;1.10;99.90;;;;;;5036613;28;20042;-66
2022/01/13 04:24:40;;;;;;;42.15;21.98;;;1.20;99.90;;;;;;5026672;28;20505;-67
2022/01/13 04:27:09;;;;;;;41.43;22.83;;;1.20;99.90;;;;;;5033941;28;20045;-67
2022/01/13 04:29:40;;;;;;;38.90;20.63;;;1.20;99.90;;;;;;5044988;28;20049;-66
2022/01/13 04:32:08;;;;;;;40.35;22.45;;;1.10;99.90;;;;;;5038648;28;20049;-67
2022/01/13 04:34:35;;;;;;;41.20;23.58;;;1.10;99.90;;;;;;5024235;28;20052;-67
2022/01/13 04:37:03;;;;;;;40.58;22.33;;;1.10;99.90;;;;;;5042057;28;20401;-67
2022/01/13 04:39:32;;;;;;;38.17;21.63;;;1.10;99.90;;;;;;5041667;28;20049;-68
2022/01/13 04:41:59;;;;;;;40.55;21.63;;;1.10;99.90;;;;;;5039478;28;20508;-66
2022/01/13 04:44:26;;;;;;;41.20;22.20;;;1.10;99.90;;;;;;5024340;28;20045;-67
2022/01/13 04:46:55;;;;;;;43.83;24.45;;;1.10;99.90;;;;;;5027868;28;20145;-66
2022/01/13 04:49:22;;;;;;;39.20;21.30;;;1.10;99.90;;;;;;5035228;28;20048;-66
2022/01/13 04:51:50;;;;;;;40.35;21.83;;;1.10;99.90;;;;;;5030209;28;20092;-67
2022/01/13 04:54:18;;;;;;;38.55;20.88;;;1.10;99.90;;;;;;5023278;28;20037;-68
2022/01/13 04:59:13;;;;;;;42.80;22.73;;;1.10;99.90;;;;;;5034980;28;20045;-67
2022/01/13 05:01:41;;;;;;;41.50;22.88;;;1.10;99.90;;;;;;5017848;28;20061;-67
2022/01/13 05:04:09;;;;;;;40.58;21.80;;;1.10;99.90;;;;;;5027227;28;20127;-67
2022/01/13 05:06:36;;;;;;;44.45;23.30;;;1.10;99.90;;;;;;5031626;28;20064;-67
2022/01/13 05:09:04;;;;;;;44.60;23.85;;;1.20;99.90;;;;;;5032900;28;20129;-66
2022/01/13 05:11:31;;;;;;;44.28;23.08;;;1.20;99.90;;;;;;5027854;28;20369;-67
2022/01/13 05:13:58;;;;;;;41.20;23.05;;;1.20;99.90;;;;;;5033432;28;20041;-66
2022/01/13 05:16:51;;;;;;;40.00;21.45;;;1.20;99.90;;;;;;5036034;28;20045;-67
2022/01/13 05:19:17;;;;;;;34.08;20.27;;;1.30;99.90;;;;;;5032795;28;20467;-67
2022/01/13 05:24:12;;;;;;;35.33;20.92;;;1.30;99.90;;;;;;5031176;28;20488;-67
2022/01/13 05:26:39;;;;;;;42.03;23.08;;;1.30;99.90;;;;;;5031054;28;20049;-67
2022/01/13 05:29:07;;;;;;;39.58;21.60;;;1.30;99.90;;;;;;5023798;28;20087;-67
2022/01/13 05:31:34;;;;;;;36.75;21.08;;;1.30;99.90;;;;;;5027548;28;20033;-67
2022/01/13 05:34:01;;;;;;;49.35;27.30;;;1.30;99.90;;;;;;5021428;28;20057;-67
2022/01/13 05:36:29;;;;;;;39.78;22.65;;;1.20;99.90;;;;;;5043582;28;20447;-67
2022/01/13 05:38:56;;;;;;;38.72;21.90;;;1.30;99.90;;;;;;5036633;28;20112;-67
2022/01/13 05:41:23;;;;;;;33.70;19.63;;;1.30;99.90;;;;;;5043782;28;20049;-67
2022/01/13 05:43:50;;;;;;;35.90;20.90;;;1.30;99.90;;;;;;5027031;28;20041;-67
2022/01/13 05:46:18;;;;;;;36.58;21.65;;;1.20;99.90;;;;;;5035237;28;20099;-67
2022/01/13 05:48:45;;;;;;;39.63;21.35;;;1.20;99.90;;;;;;5028097;28;20068;-67
2022/01/13 05:51:12;;;;;;;39.53;22.92;;;1.20;99.90;;;;;;5021317;28;20041;-67
2022/01/13 05:53:39;;;;;;;37.50;21.63;;;1.20;99.90;;;;;;5022471;28;20088;-67
2022/01/13 05:56:09;;;;;;;42.28;23.17;;;1.10;99.90;;;;;;5028509;28;20045;-68
2022/01/13 05:58:36;;;;;;;42.80;23.65;;;1.20;99.90;;;;;;5030738;28;20064;-67
2022/01/13 06:01:03;;;;;;;40.63;22.33;;;1.20;99.90;;;;;;5030880;28;20045;-67
2022/01/13 06:03:31;;;;;;;38.97;21.98;;;1.20;99.90;;;;;;5031433;28;20045;-67
2022/01/13 06:05:58;;;;;;;37.47;21.13;;;1.20;99.90;;;;;;5036242;28;20053;-67
2022/01/13 06:08:26;;;;;;;40.33;22.17;;;1.20;99.90;;;;;;5030732;28;20507;-67
2022/01/13 06:10:53;;;;;;;35.80;21.05;;;1.10;99.90;;;;;;5030427;28;20049;-67
2022/01/13 06:13:20;;;;;;;37.28;21.50;;;1.10;99.90;;;;;;5035497;28;20045;-67
2022/01/13 06:15:47;;;;;;;34.85;20.90;;;1.20;99.90;;;;;;5030125;28;20037;-67
2022/01/13 06:18:16;;;;;;;38.88;21.55;;;1.20;99.90;;;;;;5035683;28;20503;-67
2022/01/13 06:20:43;;;;;;;36.67;21.13;;;1.20;99.90;;;;;;5030664;28;20500;-67
2022/01/13 06:23:11;;;;;;;37.28;21.77;;;1.20;99.90;;;;;;5041583;28;20051;-67
2022/01/13 06:25:39;;;;;;;40.67;21.98;;;1.20;99.90;;;;;;5028443;28;20045;-67
2022/01/13 06:28:06;;;;;;;37.42;22.40;;;1.20;99.90;;;;;;5033016;28;20049;-67
2022/01/13 06:30:41;;;;;;;37.95;20.60;;;1.20;99.90;;;;;;5031793;28;20041;-68
2022/01/13 06:33:08;;;;;;;35.13;21.45;;;1.20;99.90;;;;;;5032807;28;20063;-67
2022/01/13 06:35:36;;;;;;;37.50;20.58;;;1.20;99.90;;;;;;5031116;28;20041;-67
2022/01/13 06:38:04;;;;;;;42.55;23.38;;;1.20;99.90;;;;;;5031529;28;20045;-67
2022/01/13 06:40:31;;;;;;;39.00;21.42;;;1.20;99.90;;;;;;5029850;28;20037;-68
2022/01/13 06:42:58;;;;;;;39.88;22.35;;;1.20;99.90;;;;;;5028070;28;20041;-66
2022/01/13 06:45:25;;;;;;;39.88;21.98;;;1.10;99.90;;;;;;5031556;28;20053;-67
2022/01/13 06:47:52;;;;;;;37.72;21.70;;;1.10;99.90;;;;;;5029083;28;20049;-67
2022/01/13 06:50:20;;;;;;;41.08;21.33;;;1.10;99.90;;;;;;5037022;28;20060;-68
2022/01/13 06:52:48;;;;;;;40.20;22.20;;;1.10;99.90;;;;;;5034019;28;20069;-68
2022/01/13 06:55:15;;;;;;;38.35;22.17;;;1.10;99.90;;;;;;5039912;28;20043;-67
2022/01/13 06:57:43;;;;;;;35.75;21.40;;;1.10;99.90;;;;;;5041430;28;20044;-67
2022/01/13 07:00:11;;;;;;;39.90;21.48;;;1.20;99.90;;;;;;5033395;28;20080;-67
2022/01/13 07:02:38;;;;;;;39.22;20.73;;;1.20;99.90;;;;;;5029492;28;20132;-68
2022/01/13 07:05:06;;;;;;;34.88;20.63;;;1.20;99.90;;;;;;5037080;28;20530;-68
2022/01/13 07:07:36;;;;;;;33.47;19.58;;;1.20;99.90;;;;;;5030129;28;20534;-68
2022/01/13 07:10:09;;;;;;;35.17;20.13;;;1.20;99.90;;;;;;5038117;28;20167;-69
2022/01/13 07:12:36;;;;;;;37.55;20.40;;;1.20;99.90;;;;;;5038363;28;20036;-68
2022/01/13 07:15:05;;;;;;;39.15;20.42;;;1.20;99.90;;;;;;5033400;28;20049;-69
2022/01/13 07:17:33;;;;;;;38.75;20.98;;;1.20;99.90;;;;;;5040957;28;20045;-68
2022/01/13 07:20:02;;;;;;;35.28;20.30;;;1.20;99.90;;;;;;5041749;28;20053;-68
2022/01/13 07:22:30;;;;;;;39.03;20.75;;;1.30;99.90;;;;;;5026687;28;20046;-67
2022/01/13 07:24:57;;;;;;;37.58;21.73;;;1.30;99.90;;;;;;5030308;28;20526;-69
2022/01/13 07:27:24;;;;;;;37.33;19.75;;;1.30;99.90;;;;;;5038540;28;20049;-69
2022/01/13 07:29:52;;;;;;;35.85;20.55;;;1.30;99.90;;;;;;5038926;28;20424;-69
2022/01/13 07:32:19;;;;;;;36.00;19.92;;;1.30;99.90;;;;;;5031360;28;20033;-69
2022/01/13 07:34:46;;;;;;;38.28;20.48;;;1.30;99.90;;;;;;5030309;28;20463;-69
2022/01/13 07:37:15;;;;;;;37.75;20.67;;;1.30;99.90;;;;;;5029505;28;20542;-69
2022/01/13 07:39:42;;;;;;;37.42;21.75;;;1.40;99.90;;;;;;5025953;28;20547;-69
2022/01/13 07:42:10;;;;;;;33.78;19.38;;;1.40;99.90;;;;;;5027285;28;20045;-69
2022/01/13 07:44:38;;;;;;;36.72;20.42;;;1.40;99.90;;;;;;5027892;28;20052;-70
2022/01/13 07:47:05;;;;;;;39.90;21.00;;;1.50;99.90;;;;;;5024831;28;20103;-70
2022/01/13 07:49:34;;;;;;;36.90;20.58;;;1.50;99.90;;;;;;5032309;28;20037;-70
2022/01/13 07:52:03;;;;;;;36.90;19.20;;;1.50;99.90;;;;;;5034101;28;20053;-70
2022/01/13 07:54:31;;;;;;;38.80;20.95;;;1.50;99.90;;;;;;5030097;28;20047;-68
2022/01/13 07:57:00;;;;;;;35.70;20.63;;;1.60;99.90;;;;;;5024723;28;20080;-67
2022/01/13 07:59:29;;;;;;;34.88;20.48;;;1.60;99.90;;;;;;5031055;28;20508;-68
2022/01/13 08:01:58;;;;;;;36.38;21.20;;;1.70;99.90;;;;;;5026771;28;20065;-68
2022/01/13 08:04:26;;;;;;;41.08;21.63;;;1.70;99.90;;;;;;5034100;28;20051;-67
2022/01/13 08:06:53;;;;;;;37.05;21.48;;;1.70;99.90;;;;;;5029097;28;20530;-68
2022/01/13 08:09:22;;;;;;;40.97;22.70;;;1.70;99.90;;;;;;5034817;28;20407;-68
2022/01/13 08:11:50;;;;;;;36.10;19.92;;;1.80;99.90;;;;;;5031407;28;20504;-67
2022/01/13 08:14:18;;;;;;;33.22;19.08;;;1.90;99.90;;;;;;5018284;28;20041;-68
2022/01/13 08:16:45;;;;;;;39.65;20.92;;;1.80;99.90;;;;;;5029888;28;21043;-68
2022/01/13 08:21:58;;;;;;;33.70;18.73;;;1.80;99.90;;;;;;5031465;28;20049;-68
2022/01/13 08:24:26;;;;;;;36.38;20.13;;;1.80;99.90;;;;;;5030064;28;20041;-68
2022/01/13 08:26:53;;;;;;;38.65;20.00;;;1.80;99.90;;;;;;5037268;28;20495;-68
2022/01/13 08:29:20;;;;;;;39.40;21.88;;;1.80;99.90;;;;;;5040978;28;20488;-68
2022/01/13 08:31:47;;;;;;;42.40;21.95;;;1.80;99.90;;;;;;5043417;28;20499;-68
2022/01/13 08:34:16;;;;;;;38.85;22.23;;;1.80;99.90;;;;;;5039116;28;20534;-68
2022/01/13 08:36:44;;;;;;;43.22;23.65;;;1.90;99.90;;;;;;5035476;28;20042;-68
2022/01/13 08:39:12;;;;;;;39.70;22.52;;;1.90;99.90;;;;;;5037302;28;20508;-68
2022/01/13 08:41:40;;;;;;;38.13;21.15;;;1.90;99.90;;;;;;5042394;28;20052;-68
2022/01/13 08:44:09;;;;;;;34.65;21.30;;;2.00;99.90;;;;;;5037881;28;20444;-68
2022/01/13 08:46:38;;;;;;;35.17;20.65;;;2.10;99.90;;;;;;5043155;28;20049;-68
2022/01/13 08:49:05;;;;;;;39.15;20.23;;;2.00;99.90;;;;;;5040369;28;20127;-68
2022/01/13 08:51:33;;;;;;;36.53;20.40;;;2.10;99.90;;;;;;5033807;28;20050;-69
2022/01/13 08:54:00;;;;;;;35.53;19.77;;;2.10;99.90;;;;;;5022663;28;20038;-68
2022/01/13 08:56:27;;;;;;;34.95;20.33;;;2.20;99.90;;;;;;5039914;28;20037;-68
2022/01/13 08:58:55;;;;;;;32.42;19.48;;;2.20;99.90;;;;;;5027906;28;20060;-67
2022/01/13 09:01:22;;;;;;;31.83;18.77;;;2.30;99.90;;;;;;5025938;28;20049;-68
2022/01/13 09:03:50;;;;;;;35.55;20.73;;;2.30;99.90;;;;;;5028618;28;20053;-68
2022/01/13 09:06:17;;;;;;;33.45;19.15;;;2.30;99.90;;;;;;5038143;28;20575;-67
2022/01/13 09:08:45;;;;;;;36.42;20.05;;;2.20;99.90;;;;;;5034789;28;20401;-68
2022/01/13 09:11:13;;;;;;;35.13;20.52;;;2.20;99.90;;;;;;5035391;28;20096;-68
2022/01/13 09:13:40;;;;;;;34.22;20.85;;;2.30;99.90;;;;;;5031682;28;20121;-68
2022/01/13 09:16:15;;;;;;;34.55;19.48;;;2.40;99.90;;;;;;5026524;28;20377;-68
2022/01/13 09:21:25;;;;;;;30.83;17.70;;;2.40;99.90;;;;;;5033420;28;20044;-68
2022/01/13 09:23:53;;;;;;;28.73;17.02;;;2.40;99.90;;;;;;5031367;28;20042;-68
2022/01/13 09:26:21;;;;;;;33.05;18.27;;;2.40;99.90;;;;;;5033341;28;20037;-68
2022/01/13 09:28:48;;;;;;;32.95;17.90;;;2.40;99.90;;;;;;5034647;28;20065;-68
2022/01/13 09:31:15;;;;;;;29.98;16.92;;;2.40;99.90;;;;;;5027392;28;20049;-68
2022/01/13 09:33:43;;;;;;;31.45;16.65;;;2.40;99.90;;;;;;5030725;28;20033;-69
2022/01/13 09:36:10;;;;;;;29.63;17.45;;;2.40;99.90;;;;;;5031523;28;20059;-68
2022/01/13 09:38:37;;;;;;;29.20;16.73;;;2.40;99.90;;;;;;5036194;28;20041;-68
2022/01/13 09:41:05;;;;;;;26.67;16.48;;;2.40;99.90;;;;;;5032515;28;20101;-68
2022/01/13 09:43:32;;;;;;;27.65;16.20;;;2.60;99.90;;;;;;5036308;28;20036;-68
2022/01/13 09:46:00;;;;;;;22.38;12.40;;;2.60;99.90;;;;;;5028269;28;20045;-68
2022/01/13 09:48:28;;;;;;;24.33;13.25;;;2.60;99.90;;;;;;5032995;28;20049;-68
2022/01/13 09:50:56;;;;;;;26.90;14.15;;;2.50;99.90;;;;;;5030941;28;20648;-68
2022/01/13 09:53:23;;;;;;;27.15;15.38;;;2.50;99.90;;;;;;5029470;28;20041;-67
2022/01/13 09:55:51;;;;;;;27.98;16.38;;;2.60;99.90;;;;;;5044486;28;20068;-69
2022/01/13 09:58:18;;;;;;;25.05;14.07;;;2.70;99.90;;;;;;5028072;28;20504;-68
2022/01/13 10:00:46;;;;;;;28.38;15.80;;;2.70;99.90;;;;;;5026954;28;20544;-69
2022/01/13 10:03:17;;;;;;;29.25;15.80;;;2.80;99.90;;;;;;5028137;28;20060;-68
2022/01/13 10:05:57;;;;;;;26.85;16.52;;;2.90;99.90;;;;;;5028233;28;20121;-68
2022/01/13 10:08:53;;;;;;;27.33;15.43;;;2.90;99.90;;;;;;5024079;28;20055;-67
2022/01/13 10:11:29;;;;;;;28.10;16.90;;;3.00;99.90;;;;;;5026790;28;20064;-68
2022/01/13 10:14:11;;;;;;;32.22;17.70;;;3.30;99.90;;;;;;5023533;28;20065;-67
2022/01/13 10:16:49;;;;;;;31.40;17.65;;;3.50;99.90;;;;;;5026770;28;20151;-68
2022/01/13 10:19:37;;;;;;;25.77;15.73;;;3.70;99.90;;;;;;5027378;28;20140;-68
2022/01/13 10:22:07;;;;;;;29.55;16.60;;;3.80;99.90;;;;;;5025128;28;20048;-68
2022/01/13 10:24:38;;;;;;;29.13;16.38;;;3.70;99.90;;;;;;5027881;28;20131;-68
2022/01/13 10:27:27;;;;;;;27.80;17.15;;;3.70;99.90;;;;;;5023996;28;20371;-67
2022/01/13 10:29:58;;;;;;;27.67;16.25;;;3.80;99.90;;;;;;5027756;28;20052;-68
2022/01/13 10:32:27;;;;;;;35.75;18.52;;;4.00;99.90;;;;;;5028856;28;20056;-68
2022/01/13 10:35:00;;;;;;;30.33;16.73;;;4.10;99.90;;;;;;5029270;28;20496;-68
2022/01/13 10:37:30;;;;;;;26.45;16.10;;;4.10;99.90;;;;;;5028340;28;20441;-68
2022/01/13 10:40:07;;;;;;;28.65;15.70;;;4.00;99.90;;;;;;5028474;28;20056;-68
2022/01/13 10:45:02;;;;;;;25.67;15.80;;;4.00;99.90;;;;;;5030170;28;20049;-68
2022/01/13 10:47:32;;;;;;;28.27;16.50;;;4.00;99.90;;;;;;5031384;28;20072;-68
2022/01/13 10:50:09;;;;;;;23.38;14.98;;;3.70;99.90;;;;;;5031328;28;20404;-68
2022/01/13 10:52:37;;;;;;;27.05;14.93;;;3.80;99.90;;;;;;5032924;28;20049;-68
2022/01/13 10:55:13;;;;;;;26.92;15.75;;;3.80;99.90;;;;;;5036205;28;20099;-68
2022/01/13 10:58:00;;;;;;;27.75;15.40;;;4.00;99.90;;;;;;5036661;28;20093;-68
2022/01/13 11:00:30;;;;;;;25.60;15.55;;;4.30;99.90;;;;;;5037042;28;20053;-68
2022/01/13 11:03:14;;;;;;;27.55;16.60;;;4.40;99.90;;;;;;5036759;28;20172;-68
2022/01/13 11:05:53;;;;;;;32.60;17.30;;;4.60;99.90;;;;;;5038340;28;20041;-68
2022/01/13 11:08:33;;;;;;;29.33;18.45;;;4.90;99.90;;;;;;5030535;28;20462;-68
2022/01/13 11:11:02;;;;;;;37.08;18.88;;;5.30;99.90;;;;;;5036141;28;20045;-68
2022/01/13 11:13:35;;;;;;;29.85;16.70;;;5.80;99.90;;;;;;5035058;28;20207;-68
2022/01/13 11:16:03;;;;;;;29.55;17.48;;;6.00;99.90;;;;;;5038820;28;20050;-68
2022/01/13 11:18:33;;;;;;;29.30;16.25;;;6.40;99.90;;;;;;5024492;28;20049;-67
2022/01/13 11:21:02;;;;;;;26.50;15.52;;;6.70;99.90;;;;;;5030872;28;20041;-68
2022/01/13 11:23:31;;;;;;;25.08;14.95;;;7.20;99.90;;;;;;5026788;28;20049;-67
2022/01/13 11:25:58;;;;;;;27.05;16.33;;;7.00;99.90;;;;;;5030350;28;20412;-68
2022/01/13 11:28:26;;;;;;;26.80;16.15;;;6.60;99.90;;;;;;5029839;28;20050;-68
2022/01/13 11:30:53;;;;;;;29.30;16.85;;;6.40;99.90;;;;;;5036538;28;20045;-68
2022/01/13 11:33:22;;;;;;;23.55;15.13;;;6.10;99.90;;;;;;5046022;28;20043;-68
2022/01/13 11:35:57;;;;;;;23.23;14.63;;;6.00;99.90;;;;;;5040271;28;20571;-68
2022/01/13 11:38:27;;;;;;;24.08;15.38;;;5.70;99.90;;;;;;5045510;28;20044;-69
2022/01/13 11:41:01;;;;;;;23.88;14.77;;;5.70;99.90;;;;;;5040137;28;20144;-68
2022/01/13 11:43:38;;;;;;;25.15;15.40;;;5.90;99.90;;;;;;5042979;28;20520;-67
2022/01/13 11:46:24;;;;;;;31.20;16.73;;;6.30;99.90;;;;;;5029998;28;20037;-67
2022/01/13 11:49:20;;;;;;;24.23;15.27;;;6.70;99.90;;;;;;5026164;28;20069;-68
2022/01/13 11:52:14;;;;;;;25.90;15.73;;;7.30;99.90;;;;;;5019814;28;20048;-68
2022/01/13 11:54:43;;;;;;;26.77;15.18;;;7.50;99.90;;;;;;5020095;28;20036;-68
2022/01/13 11:57:35;;;;;;;27.02;15.95;;;8.40;99.90;;;;;;5038533;28;20041;-69
2022/01/13 12:00:04;;;;;;;25.73;15.10;;;9.20;99.90;;;;;;5045394;28;20504;-68
2022/01/13 12:02:43;;;;;;;25.08;15.18;;;9.30;99.90;;;;;;5030137;28;20095;-69
2022/01/13 12:05:18;;;;;;;22.10;14.75;;;9.10;99.90;;;;;;5045818;28;20469;-68
2022/01/13 12:07:46;;;;;;;24.35;15.90;;;9.10;99.90;;;;;;5030066;28;20073;-68
2022/01/13 12:10:40;;;;;;;28.27;16.10;;;9.10;99.90;;;;;;5030346;28;20056;-68
2022/01/13 12:13:29;;;;;;;26.75;15.20;;;8.70;99.90;;;;;;5030053;28;20049;-68
2022/01/13 12:15:56;;;;;;;26.40;16.00;;;8.70;99.90;;;;;;5029898;28;20617;-68
2022/01/13 12:18:42;;;;;;;25.92;15.63;;;9.00;99.90;;;;;;5029917;28;20048;-67
2022/01/13 12:21:35;;;;;;;24.17;15.70;;;9.40;99.90;;;;;;5029933;28;20046;-68
2022/01/13 12:24:05;;;;;;;;;;;9.40;99.90;;;;;;5016001;28;20423;-68
2022/01/13 12:26:33;;;;;;;22.98;15.00;;;10.10;99.90;;;;;;5027443;28;20446;-68
2022/01/13 12:29:27;;;;;;;22.27;14.90;;;10.80;99.90;;;;;;5042614;28;20069;-69
2022/01/13 12:31:59;;;;;;;24.42;15.00;;;11.00;99.90;;;;;;5044479;28;20051;-69
2022/01/13 12:34:29;;;;;;;26.52;16.23;;;10.90;99.90;;;;;;5049942;28;20155;-68
2022/01/13 12:36:57;;;;;;;23.83;15.30;;;11.40;99.90;;;;;;5039741;28;20404;-68
2022/01/13 12:39:27;;;;;;;24.38;15.73;;;11.30;99.90;;;;;;5029888;28;20141;-67
2022/01/13 12:41:59;;;;;;;24.23;15.82;;;10.90;99.90;;;;;;5033348;28;20045;-67
2022/01/13 12:47:13;;;;;;;25.92;16.38;;;9.80;99.90;;;;;;5028272;28;19929;-67
2022/01/13 12:49:50;;;;;;;25.27;16.65;;;9.20;99.90;;;;;;5028233;28;20057;-68
2022/01/13 12:52:26;;;;;;;26.38;15.88;;;9.00;99.90;;;;;;5028165;28;20519;-68
2022/01/13 12:54:54;;;;;;;23.70;15.57;;;9.40;99.90;;;;;;5033718;28;20036;-68
2022/01/13 12:57:23;;;;;;;22.08;15.85;;;9.50;99.90;;;;;;5039977;28;20045;-67
2022/01/13 12:59:58;;;;;;;24.27;16.27;;;9.60;99.90;;;;;;5028941;28;20064;-68
2022/01/13 13:02:25;;;;;;;21.35;14.98;;;9.10;99.90;;;;;;5028909;28;20377;-68
2022/01/13 13:04:54;;;;;;;25.80;17.05;;;8.80;99.90;;;;;;5029051;28;20097;-67
2022/01/13 13:07:21;;;;;;;24.77;15.70;;;8.30;99.90;;;;;;5034197;28;20046;-68
2022/01/13 13:09:51;;;;;;;24.58;16.23;;;8.00;99.90;;;;;;5022797;28;20128;-67
2022/01/13 13:12:26;;;;;;;26.75;16.90;;;7.70;99.90;;;;;;5020165;28;20037;-68
2022/01/13 13:17:41;;;;;;;25.67;15.88;;;7.40;99.90;;;;;;5039992;28;20041;-65
2022/01/13 13:20:31;;;;;;;26.23;16.88;;;7.40;99.90;;;;;;5036538;28;20064;-69
2022/01/13 13:23:03;;;;;;;26.88;15.90;;;6.60;99.90;;;;;;5017897;28;20072;-67